Historyczne dane pomiarowe

Dodano dane terminowe – wersja testowa.

Dane z okresu 1951-2019

Wersja bazy: 1.34 [2019-03-16, lista zmian], aktualizacja planowana na 2019-04-15

Dane meteo z obszaru Polski uzyskane na podstawie danych udostępnionych przez Instytut Meteorologii i Gospodarki Wodnej – Państwowy Instytut Badawczy.

 

Wybierz Datę:    

       

TemperaturaWilgotnośćWiatrCiśnienieOpadyŚniegCzas trwania zjawisk
 Stacja t tx tn tng RH VA  wxwx mslp ppp RRR   cm mm wxwxwxwxwxwxwx
1999-08-14 12.2 18.7 5.9 5.7 94.5- 2.3 1.0---- 0.0------------
1999-08-13 13.9 17.7 10.3 9.8 82.5- 7.0 0.7---- 0.0------------
1999-08-12 15.4 20.8 12.8 12.8 92.0- 7.7 2.0---- 0.0------------
1999-08-11 18.5 22.7 14.3 13.3 82.3- 6.3 2.3---- 7.0------------
1999-08-10 19.4 27.8 13.3 12.8 85.8- 6.0 0.0---- 18.2------------
1999-08-09 18.5 29.3 9.9 9.3 81.8- 2.7 1.0---- 0.7------------
1999-08-08 19.8 26.3 13.3 12.8 80.8- 4.3 2.0---- 0.0------------
1999-08-07 18.3 26.8 10.3 9.8 86.0- 6.0 1.7---- 6.7------------
1999-08-06 19.2 25.8 12.8 11.3 82.3- 6.0 1.7---- 1.9------------
1999-08-05 14.7 24.2 5.4 4.6 79.3- 6.0 1.3---- 0.3------------
1999-08-04 14.3 21.7 5.9 4.6 87.8- 3.0 1.3---- 0.0------------
1999-08-03 13.9 18.7 9.9 8.2 82.5- 6.3 0.3---- 0.0------------
1999-08-02 12.1 17.7 6.4 5.7 92.8- 6.0 1.3---- 0.5------------
1999-08-01 14.4 20.2 9.9 8.8 92.5- 6.7 0.7---- 0.1------------
1999-07-31 13.5 21.2 5.4 4.6 82.5- 5.7 1.0---- 1.1------------
1999-07-30 12.7 20.7 5.4 4.6 90.3- 4.3 1.0---- 0.6------------
1999-07-29 14.9 20.2 8.4 6.7 82.0- 2.0 1.3---- 0.0------------
1999-07-28 18.0 21.7 15.3 14.9 91.3- 6.0 2.0---- 0.0------------
1999-07-27 18.0 20.7 14.8 13.9 96.5- 8.0 1.3---- 0.0------------
1999-07-26 17.8 26.3 10.8 10.3 90.8- 7.3 1.7---- 0.0------------
1999-07-25 15.3 22.7 7.9 7.7 88.0- 3.7 1.3---- 0.0------------
1999-07-24 14.2 17.2 10.8 10.4 97.0- 7.0 0.0---- 0.0------------
1999-07-23 14.1 18.7 11.8 11.8 95.8- 8.0 0.0---- 8.8------------
1999-07-22 17.6 24.2 11.8 10.8 91.3- 5.0 1.3---- 16.8------------
1999-07-21 18.9 26.8 10.8 9.8 84.3- 5.7 1.0---- 0.0------------
1999-07-20 18.2 26.3 9.4 8.2 79.0- 1.0 1.0---- 0.0------------
1999-07-19 16.0 26.3 6.4 5.2 86.0- 3.0 0.0---- 0.0------------
1999-07-18 14.4 21.7 5.9 4.7 93.8- 3.0 0.0---- 0.0------------
1999-07-17 14.8 19.7 9.9 8.8 92.3- 3.3 0.3---- 0.0------------
1999-07-16 14.4 19.7 7.9 6.7 84.5- 4.0 1.3---- 0.0------------
1999-07-15 16.1 20.7 13.8 13.3 82.3- 5.7 3.0---- 0.0------------
1999-07-14 17.3 21.7 13.3 12.8 94.5- 6.7 1.3---- 4.5------------
1999-07-13 18.6 23.7 15.3 15.0 90.8- 6.0 1.0---- 9.4------------
1999-07-12 18.1 23.7 12.3 11.8 90.3- 6.0 1.3---- 3.4------------
1999-07-11 18.1 19.7 16.8 16.4 94.0- 7.7 1.7---- 12.7------------
1999-07-10 18.2 20.7 16.8 16.5 91.8- 8.0 3.0---- 0.3------------
1999-07-09 18.2 21.7 14.8 14.4 90.0- 7.7 2.0---- 2.5------------
1999-07-08 18.9 23.2 16.3 15.4 94.5- 8.0 0.0---- 17.4------------
1999-07-07 20.7 27.2 14.8 13.9 91.3- 5.7 1.3---- 17.0------------
1999-07-06 21.9 30.8 11.8 10.8 86.5- 2.0 0.0---- 0.0------------
1999-07-05 20.0 28.3 10.8 9.8 78.8- 1.0 0.0---- 0.0------------
1999-07-04 19.4 29.3 8.9 7.7 81.8- 0.3 0.7---- 0.0------------
1999-07-03 17.2 21.7 11.8 10.8 88.5- 6.0 1.0---- 0.0------------
1999-07-02 18.3 23.2 13.3 11.8 82.3- 5.0 1.3---- 8.6------------
1999-07-01 16.4 23.7 8.9 8.8 88.5- 5.3 1.3---- 0.0------------
1999-06-30 18.7 24.2 12.8 11.8 81.5- 6.0 1.3---- 0.0------------
1999-06-29 19.4 27.3 12.8 11.8 76.0- 5.3 1.7---- 0.0------------
1999-06-28 15.7 24.8 7.3 6.2 85.8- 5.0 0.0---- 2.3------------
1999-06-27 15.6 24.8 5.4 4.1 78.5- 1.3 1.3---- 0.0------------
1999-06-26 13.5 22.7 2.9 0.5 85.0- 1.0 0.0---- 0.0------------
1999-06-25 10.8 17.7 1.9 1.1 78.3- 3.0 2.0---- 0.0------------
1999-06-24 9.5 11.3 7.3 6.7 91.8- 8.0 0.0---- 0.0------------
1999-06-23 7.7 8.8 6.3 6.2 94.3- 8.0 5.0---- 8.4------------
1999-06-22 10.2 16.2 6.8 6.7 88.8- 8.0 7.0---- 18.7------------
1999-06-21 17.0 21.2 14.8 14.7 95.5- 6.7 0.0---- 11.6------------
1999-06-20 17.2 21.7 13.3 12.3 88.0- 7.3 0.3---- 0.0------------
1999-06-19 16.0 19.7 12.8 12.3 95.0- 8.0 1.0---- 0.0------------
1999-06-18 16.1 19.2 13.8 12.8 94.0- 8.0 0.7---- 9.3------------
1999-06-17 16.3 19.7 14.3 13.9 98.0- 8.0 0.7---- 25.5------------
1999-06-16 17.6 20.7 14.8 13.9 93.8- 8.0 1.3---- 10.3------------
266.2 ms

 

Źródłem pochodzenia danych jest Instytut Meteorologii i Gospodarki Wodnej – Państwowy Instytut Badawczy. Dane Instytutu Meteorologii i Gospodarki Wodnej – Państwowego Instytutu Badawczego zostały przetworzone.

Dane źródłowe można odnaleźć na stronie https://dane.imgw.pl